TimeEDT,TemperatureF,Dew PointF,Humidity,Sea Level PressureIn,VisibilityMPH,Wind Direction,Wind SpeedMPH,Gust SpeedMPH,PrecipitationIn,Events,Conditions,WindDirDegrees,DateUTC
12:14 AM,74.1,70.9,90,30.01,7.0,Calm,Calm,-,N/A,,Scattered Clouds,0,2013-08-27 04:14:00
12:35 AM,73.6,70.7,91,30.01,7.0,Calm,Calm,-,N/A,,Overcast,0,2013-08-27 04:35:00
12:54 AM,74.5,71.4,90,30.01,7.0,Calm,Calm,-,N/A,,Overcast,0,2013-08-27 04:54:00
1:14 AM,75.2,71.6,89,30.00,7.0,Calm,Calm,-,N/A,,Overcast,0,2013-08-27 05:14:00
1:35 AM,76.1,71.8,86,30.00,10.0,SW,4.6,-,N/A,,Overcast,220,2013-08-27 05:35:00
1:54 AM,76.1,71.6,86,29.99,7.0,SSW,5.8,-,N/A,,Overcast,210,2013-08-27 05:54:00
2:15 AM,75.2,71.6,89,29.98,7.0,SW,5.8,-,N/A,,Mostly Cloudy,220,2013-08-27 06:15:00
2:35 AM,75.2,71.8,89,29.98,7.0,SW,4.6,-,N/A,,Mostly Cloudy,220,2013-08-27 06:35:00
2:54 AM,74.8,71.8,90,29.98,7.0,Calm,Calm,-,N/A,,Overcast,0,2013-08-27 06:54:00
3:15 AM,74.7,71.8,91,29.98,7.0,SW,4.6,-,N/A,,Overcast,230,2013-08-27 07:15:00
3:35 AM,74.7,71.8,91,29.98,7.0,WSW,6.9,-,N/A,,Overcast,240,2013-08-27 07:35:00
3:54 AM,74.5,71.6,91,29.98,7.0,WSW,5.8,-,N/A,,Overcast,240,2013-08-27 07:54:00
4:15 AM,74.1,71.6,92,29.97,7.0,WSW,5.8,-,N/A,,Scattered Clouds,240,2013-08-27 08:15:00
4:35 AM,73.6,71.2,92,29.96,7.0,WSW,5.8,-,N/A,,Clear,240,2013-08-27 08:35:00
4:54 AM,73.6,71.6,93,29.95,7.0,SW,5.8,-,N/A,,Scattered Clouds,230,2013-08-27 08:54:00
5:15 AM,73.4,71.4,93,29.95,7.0,WSW,5.8,-,N/A,,Scattered Clouds,240,2013-08-27 09:15:00
5:34 AM,73.8,71.6,93,29.95,7.0,SW,4.6,-,N/A,,Clear,230,2013-08-27 09:34:00
5:55 AM,74.3,71.6,91,29.96,7.0,WSW,3.5,-,N/A,,Mostly Cloudy,250,2013-08-27 09:55:00
6:15 AM,74.7,71.6,90,29.98,7.0,WNW,6.9,-,N/A,,Overcast,300,2013-08-27 10:15:00
6:34 AM,74.5,72.0,92,30.00,5.0,WNW,18.4,27.6,N/A,Rain,Heavy Rain,300,2013-08-27 10:34:00
6:55 AM,72.5,70.9,95,30.01,5.0,NW,15.0,29.9,N/A,Rain,Rain,310,2013-08-27 10:55:00
7:15 AM,72.5,70.7,94,30.03,10.0,NW,10.4,17.3,N/A,Rain,Light Rain,310,2013-08-27 11:15:00
7:34 AM,72.0,70.7,96,30.03,7.0,NW,6.9,-,N/A,Rain,Rain,320,2013-08-27 11:34:00
7:55 AM,71.4,70.3,96,30.03,7.0,NNW,6.9,-,N/A,Rain,Heavy Rain,340,2013-08-27 11:55:00
8:15 AM,71.1,70.2,97,30.02,4.0,WNW,3.5,-,N/A,Rain,Rain,290,2013-08-27 12:15:00
8:34 AM,70.7,69.8,97,30.00,7.0,SW,4.6,-,N/A,Rain,Light Rain,220,2013-08-27 12:34:00
8:55 AM,71.1,70.3,98,29.99,10.0,South,3.5,-,N/A,,Light Drizzle,190,2013-08-27 12:55:00
9:14 AM,71.6,70.5,96,29.97,10.0,Calm,Calm,-,N/A,,Scattered Clouds,0,2013-08-27 13:14:00
9:34 AM,72.0,70.7,96,29.97,10.0,SSW,4.6,-,N/A,,Scattered Clouds,200,2013-08-27 13:34:00
9:54 AM,72.5,70.7,94,29.96,10.0,Calm,Calm,-,N/A,,Scattered Clouds,0,2013-08-27 13:54:00
10:15 AM,72.7,71.4,96,29.96,10.0,SSW,5.8,-,N/A,,Clear,210,2013-08-27 14:15:00
10:34 AM,72.9,71.6,96,29.97,10.0,WSW,6.9,-,N/A,,Clear,240,2013-08-27 14:34:00
10:54 AM,73.4,72.3,96,29.98,10.0,WSW,5.8,-,N/A,,Clear,250,2013-08-27 14:54:00
11:14 AM,74.5,72.7,94,29.97,10.0,SW,11.5,-,N/A,,Clear,230,2013-08-27 15:14:00
11:34 AM,74.5,72.3,93,29.98,10.0,SW,9.2,-,N/A,,Scattered Clouds,220,2013-08-27 15:34:00
11:55 AM,75.0,72.0,90,29.98,10.0,SSW,8.1,-,N/A,,Scattered Clouds,210,2013-08-27 15:55:00
12:14 PM,75.6,71.6,87,29.98,10.0,SSW,6.9,-,N/A,,Clear,210,2013-08-27 16:14:00
12:34 PM,77.2,71.1,81,29.98,10.0,SSW,4.6,-,N/A,,Clear,210,2013-08-27 16:34:00
12:54 PM,77.9,71.8,81,29.96,10.0,South,6.9,-,N/A,,Clear,190,2013-08-27 16:54:00
1:14 PM,78.8,72.7,81,29.96,10.0,SSW,8.1,-,N/A,,Clear,200,2013-08-27 17:14:00
1:35 PM,79.3,72.9,80,29.96,10.0,SSW,6.9,-,N/A,,Clear,200,2013-08-27 17:35:00
1:54 PM,79.5,72.9,80,29.96,10.0,SSW,6.9,-,N/A,,Clear,210,2013-08-27 17:54:00
2:14 PM,79.3,73.6,82,29.96,10.0,SSW,3.5,-,N/A,,Clear,200,2013-08-27 18:14:00
2:34 PM,79.9,73.6,81,29.96,10.0,SW,4.6,-,N/A,,Clear,220,2013-08-27 18:34:00
2:54 PM,80.2,73.6,80,29.95,10.0,SSW,3.5,-,N/A,,Scattered Clouds,200,2013-08-27 18:54:00
3:15 PM,81.0,73.6,78,29.94,10.0,South,3.5,-,N/A,,Scattered Clouds,180,2013-08-27 19:15:00
3:34 PM,81.9,73.8,76,29.93,10.0,SSW,4.6,-,N/A,,Clear,200,2013-08-27 19:34:00
3:54 PM,82.6,74.3,76,29.92,10.0,SW,4.6,-,N/A,,Clear,230,2013-08-27 19:54:00
4:15 PM,83.3,74.7,75,29.91,10.0,SW,6.9,-,N/A,,Scattered Clouds,220,2013-08-27 20:15:00
4:34 PM,84.6,74.8,72,29.91,10.0,SW,6.9,-,N/A,,Scattered Clouds,220,2013-08-27 20:34:00
4:54 PM,84.2,75.4,75,29.91,10.0,South,8.1,-,N/A,,Scattered Clouds,190,2013-08-27 20:54:00
5:14 PM,84.4,75.4,74,29.90,10.0,SSW,9.2,-,N/A,,Scattered Clouds,210,2013-08-27 21:14:00
5:34 PM,84.2,75.7,76,29.89,10.0,South,8.1,-,N/A,,Clear,190,2013-08-27 21:34:00
5:55 PM,83.3,76.1,79,29.91,10.0,South,5.8,-,N/A,,Scattered Clouds,190,2013-08-27 21:55:00
6:14 PM,82.8,76.1,80,29.91,7.0,South,4.6,-,N/A,,Scattered Clouds,180,2013-08-27 22:14:00
6:34 PM,82.0,76.3,83,29.89,7.0,SSE,4.6,-,N/A,,Clear,160,2013-08-27 22:34:00
6:55 PM,81.5,76.5,85,29.89,7.0,SE,3.5,-,N/A,,Mostly Cloudy,140,2013-08-27 22:55:00
7:14 PM,80.2,76.6,89,29.92,7.0,Calm,Calm,-,N/A,Rain,Light Rain,0,2013-08-27 23:14:00
7:34 PM,79.0,77.2,94,29.92,5.0,NE,3.5,-,N/A,Rain,Light Rain,50,2013-08-27 23:34:00
7:55 PM,78.6,77.4,96,29.91,3.0,ESE,3.5,-,N/A,Rain,Heavy Rain,120,2013-08-27 23:55:00
8:14 PM,78.4,77.4,96,29.92,4.0,East,4.6,-,N/A,Rain,Light Rain,80,2013-08-28 00:14:00
8:34 PM,77.9,76.6,96,29.90,5.0,East,6.9,-,N/A,Rain,Light Rain,100,2013-08-28 00:34:00
8:55 PM,77.2,75.7,95,29.89,7.0,ESE,4.6,-,N/A,,Scattered Clouds,120,2013-08-28 00:55:00
9:14 PM,77.2,76.1,96,29.88,5.0,SE,6.9,-,N/A,,Mostly Cloudy,130,2013-08-28 01:14:00
9:34 PM,77.0,75.4,95,29.88,7.0,SSE,8.1,-,N/A,,Scattered Clouds,150,2013-08-28 01:34:00
9:55 PM,77.9,76.8,96,29.88,4.0,SSE,6.9,-,N/A,,Scattered Clouds,150,2013-08-28 01:55:00
10:14 PM,78.1,77.2,97,29.87,4.0,SSE,6.9,-,N/A,Rain,Light Rain,160,2013-08-28 02:14:00
10:34 PM,78.4,77.2,96,29.88,5.0,SSE,4.6,-,N/A,Rain,Light Rain,160,2013-08-28 02:34:00
10:55 PM,78.8,77.0,94,29.87,7.0,SSE,6.9,-,N/A,Rain,Light Rain,150,2013-08-28 02:55:00
11:14 PM,78.8,76.5,92,29.88,7.0,SE,3.5,-,N/A,Rain,Heavy Rain,140,2013-08-28 03:14:00
11:34 PM,77.9,76.3,95,29.85,1.2,East,8.1,-,N/A,Rain,Rain,100,2013-08-28 03:34:00
11:55 PM,77.4,76.5,97,29.83,4.0,East,11.5,-,N/A,Rain,Rain,100,2013-08-28 03:55:00